sensor_id;sensor_type;location;lat;lon;timestamp;temperature;humidity
11609;DHT22;5860;52.018;8.536;2022-11-12T00:00:51;5.70;99.90
11609;DHT22;5860;52.018;8.536;2022-11-12T00:03:18;5.60;99.90
11609;DHT22;5860;52.018;8.536;2022-11-12T00:05:45;5.60;99.90
11609;DHT22;5860;52.018;8.536;2022-11-12T00:08:12;5.60;99.90
11609;DHT22;5860;52.018;8.536;2022-11-12T00:10:39;5.60;99.90
11609;DHT22;5860;52.018;8.536;2022-11-12T00:13:06;5.60;99.90
11609;DHT22;5860;52.018;8.536;2022-11-12T00:15:33;5.50;99.90
11609;DHT22;5860;52.018;8.536;2022-11-12T00:18:00;5.50;99.90
11609;DHT22;5860;52.018;8.536;2022-11-12T00:20:26;5.50;99.90
11609;DHT22;5860;52.018;8.536;2022-11-12T00:22:53;5.50;99.90
11609;DHT22;5860;52.018;8.536;2022-11-12T00:25:20;5.50;99.90
11609;DHT22;5860;52.018;8.536;2022-11-12T00:27:47;5.50;99.90
11609;DHT22;5860;52.018;8.536;2022-11-12T00:30:14;5.50;99.90
11609;DHT22;5860;52.018;8.536;2022-11-12T00:32:41;5.50;99.90
11609;DHT22;5860;52.018;8.536;2022-11-12T00:35:08;5.50;99.90
11609;DHT22;5860;52.018;8.536;2022-11-12T00:37:39;5.50;99.90
11609;DHT22;5860;52.018;8.536;2022-11-12T00:40:07;5.60;99.90
11609;DHT22;5860;52.018;8.536;2022-11-12T00:42:34;5.60;99.90
11609;DHT22;5860;52.018;8.536;2022-11-12T00:45:01;5.70;99.90
11609;DHT22;5860;52.018;8.536;2022-11-12T00:47:28;5.70;99.90
11609;DHT22;5860;52.018;8.536;2022-11-12T00:49:55;5.60;99.90
11609;DHT22;5860;52.018;8.536;2022-11-12T00:52:21;5.50;99.90
11609;DHT22;5860;52.018;8.536;2022-11-12T00:54:48;5.60;99.90
11609;DHT22;5860;52.018;8.536;2022-11-12T00:57:15;5.50;99.90
11609;DHT22;5860;52.018;8.536;2022-11-12T00:59:42;5.60;99.90
11609;DHT22;5860;52.018;8.536;2022-11-12T01:02:09;5.60;99.90
11609;DHT22;5860;52.018;8.536;2022-11-12T01:04:35;5.50;99.90
11609;DHT22;5860;52.018;8.536;2022-11-12T01:07:02;5.60;99.90
11609;DHT22;5860;52.018;8.536;2022-11-12T01:09:29;5.60;99.90
11609;DHT22;5860;52.018;8.536;2022-11-12T01:11:56;5.50;99.90
11609;DHT22;5860;52.018;8.536;2022-11-12T01:14:23;5.40;99.90
11609;DHT22;5860;52.018;8.536;2022-11-12T01:16:50;5.30;99.90
11609;DHT22;5860;52.018;8.536;2022-11-12T01:19:17;5.30;99.90
11609;DHT22;5860;52.018;8.536;2022-11-12T01:21:44;5.30;99.90
11609;DHT22;5860;52.018;8.536;2022-11-12T01:24:11;5.30;99.90
11609;DHT22;5860;52.018;8.536;2022-11-12T01:26:38;5.30;99.90
11609;DHT22;5860;52.018;8.536;2022-11-12T01:29:05;5.30;99.90
11609;DHT22;5860;52.018;8.536;2022-11-12T01:31:34;5.20;99.90
11609;DHT22;5860;52.018;8.536;2022-11-12T01:34:05;5.20;99.90
11609;DHT22;5860;52.018;8.536;2022-11-12T01:36:35;5.20;99.90
11609;DHT22;5860;52.018;8.536;2022-11-12T01:39:04;5.40;99.90
11609;DHT22;5860;52.018;8.536;2022-11-12T01:41:32;5.40;99.90
11609;DHT22;5860;52.018;8.536;2022-11-12T01:44:19;5.30;99.90
11609;DHT22;5860;52.018;8.536;2022-11-12T01:47:13;5.20;99.90
11609;DHT22;5860;52.018;8.536;2022-11-12T01:49:48;5.10;99.90
11609;DHT22;5860;52.018;8.536;2022-11-12T01:52:34;5.10;99.90
11609;DHT22;5860;52.018;8.536;2022-11-12T01:55:18;5.30;99.90
11609;DHT22;5860;52.018;8.536;2022-11-12T01:57:50;5.20;99.90
11609;DHT22;5860;52.018;8.536;2022-11-12T02:00:18;5.30;99.90
11609;DHT22;5860;52.018;8.536;2022-11-12T02:02:51;5.20;99.90
11609;DHT22;5860;52.018;8.536;2022-11-12T02:05:19;5.20;99.90
11609;DHT22;5860;52.018;8.536;2022-11-12T02:07:48;5.10;99.90
11609;DHT22;5860;52.018;8.536;2022-11-12T02:10:15;5.20;99.90
11609;DHT22;5860;52.018;8.536;2022-11-12T02:12:42;5.20;99.90
11609;DHT22;5860;52.018;8.536;2022-11-12T02:15:28;5.10;99.90
11609;DHT22;5860;52.018;8.536;2022-11-12T02:17:55;5.10;99.90
11609;DHT22;5860;52.018;8.536;2022-11-12T02:20:22;5.00;99.90
11609;DHT22;5860;52.018;8.536;2022-11-12T02:22:49;5.00;99.90
11609;DHT22;5860;52.018;8.536;2022-11-12T02:25:21;5.00;99.90
11609;DHT22;5860;52.018;8.536;2022-11-12T02:27:50;4.90;99.90
11609;DHT22;5860;52.018;8.536;2022-11-12T02:30:19;4.80;99.90
11609;DHT22;5860;52.018;8.536;2022-11-12T02:32:46;4.80;99.90
11609;DHT22;5860;52.018;8.536;2022-11-12T02:35:13;4.90;99.90
11609;DHT22;5860;52.018;8.536;2022-11-12T02:37:40;4.90;99.90
11609;DHT22;5860;52.018;8.536;2022-11-12T02:40:07;4.70;99.90
11609;DHT22;5860;52.018;8.536;2022-11-12T02:42:34;4.70;99.90
11609;DHT22;5860;52.018;8.536;2022-11-12T02:45:01;4.70;99.90
11609;DHT22;5860;52.018;8.536;2022-11-12T02:47:28;4.70;99.90
11609;DHT22;5860;52.018;8.536;2022-11-12T02:49:54;4.80;99.90
11609;DHT22;5860;52.018;8.536;2022-11-12T02:52:21;4.80;99.90
11609;DHT22;5860;52.018;8.536;2022-11-12T02:54:48;4.70;99.90
11609;DHT22;5860;52.018;8.536;2022-11-12T02:57:15;4.70;99.90
11609;DHT22;5860;52.018;8.536;2022-11-12T02:59:41;4.70;99.90
11609;DHT22;5860;52.018;8.536;2022-11-12T03:02:08;4.60;99.90
11609;DHT22;5860;52.018;8.536;2022-11-12T03:04:35;4.60;99.90
11609;DHT22;5860;52.018;8.536;2022-11-12T03:07:02;4.60;99.90
11609;DHT22;5860;52.018;8.536;2022-11-12T03:09:29;4.50;99.90
11609;DHT22;5860;52.018;8.536;2022-11-12T03:11:56;4.50;99.90
11609;DHT22;5860;52.018;8.536;2022-11-12T03:14:23;4.50;99.90
11609;DHT22;5860;52.018;8.536;2022-11-12T03:16:50;4.50;99.90
11609;DHT22;5860;52.018;8.536;2022-11-12T03:19:17;4.50;99.90
11609;DHT22;5860;52.018;8.536;2022-11-12T03:21:43;4.50;99.90
11609;DHT22;5860;52.018;8.536;2022-11-12T03:24:10;4.80;99.90
11609;DHT22;5860;52.018;8.536;2022-11-12T03:26:37;4.70;99.90
11609;DHT22;5860;52.018;8.536;2022-11-12T03:29:04;4.60;99.90
11609;DHT22;5860;52.018;8.536;2022-11-12T03:31:30;4.40;99.90
11609;DHT22;5860;52.018;8.536;2022-11-12T03:33:57;4.40;99.90
11609;DHT22;5860;52.018;8.536;2022-11-12T03:36:24;4.50;99.90
11609;DHT22;5860;52.018;8.536;2022-11-12T03:38:51;4.40;99.90
11609;DHT22;5860;52.018;8.536;2022-11-12T03:41:17;4.40;99.90
11609;DHT22;5860;52.018;8.536;2022-11-12T03:43:44;4.40;99.90
11609;DHT22;5860;52.018;8.536;2022-11-12T03:46:11;4.30;99.90
11609;DHT22;5860;52.018;8.536;2022-11-12T03:48:38;4.30;99.90
11609;DHT22;5860;52.018;8.536;2022-11-12T03:51:05;4.40;99.90
11609;DHT22;5860;52.018;8.536;2022-11-12T03:53:32;4.40;99.90
11609;DHT22;5860;52.018;8.536;2022-11-12T03:55:59;4.40;99.90
11609;DHT22;5860;52.018;8.536;2022-11-12T03:58:26;4.40;99.90
11609;DHT22;5860;52.018;8.536;2022-11-12T04:00:53;4.30;99.90
11609;DHT22;5860;52.018;8.536;2022-11-12T04:03:20;4.40;99.90
11609;DHT22;5860;52.018;8.536;2022-11-12T04:05:48;4.40;99.90
11609;DHT22;5860;52.018;8.536;2022-11-12T04:08:33;4.40;99.90
11609;DHT22;5860;52.018;8.536;2022-11-12T04:11:14;4.40;99.90
11609;DHT22;5860;52.018;8.536;2022-11-12T04:13:42;4.40;99.90
11609;DHT22;5860;52.018;8.536;2022-11-12T04:16:14;4.30;99.90
11609;DHT22;5860;52.018;8.536;2022-11-12T04:19:01;4.30;99.90
11609;DHT22;5860;52.018;8.536;2022-11-12T04:21:54;4.20;99.90
11609;DHT22;5860;52.018;8.536;2022-11-12T04:24:39;4.20;99.90
11609;DHT22;5860;52.018;8.536;2022-11-12T04:27:28;4.10;99.90
11609;DHT22;5860;52.018;8.536;2022-11-12T04:29:55;4.10;99.90
11609;DHT22;5860;52.018;8.536;2022-11-12T04:32:51;4.20;99.90
11609;DHT22;5860;52.018;8.536;2022-11-12T04:35:23;4.30;99.90
11609;DHT22;5860;52.018;8.536;2022-11-12T04:37:51;4.30;99.90
11609;DHT22;5860;52.018;8.536;2022-11-12T04:40:23;4.30;99.90
11609;DHT22;5860;52.018;8.536;2022-11-12T04:43:15;4.30;99.90
11609;DHT22;5860;52.018;8.536;2022-11-12T04:46:02;4.20;99.90
11609;DHT22;5860;52.018;8.536;2022-11-12T04:48:30;4.20;99.90
11609;DHT22;5860;52.018;8.536;2022-11-12T04:50:58;4.10;99.90
11609;DHT22;5860;52.018;8.536;2022-11-12T04:53:26;4.20;99.90
11609;DHT22;5860;52.018;8.536;2022-11-12T04:55:56;4.20;99.90
11609;DHT22;5860;52.018;8.536;2022-11-12T04:58:23;4.10;99.90
11609;DHT22;5860;52.018;8.536;2022-11-12T05:00:51;4.00;99.90
11609;DHT22;5860;52.018;8.536;2022-11-12T05:03:18;3.90;99.90
11609;DHT22;5860;52.018;8.536;2022-11-12T05:05:44;4.00;99.90
11609;DHT22;5860;52.018;8.536;2022-11-12T05:08:11;3.90;99.90
11609;DHT22;5860;52.018;8.536;2022-11-12T05:10:38;3.90;99.90
11609;DHT22;5860;52.018;8.536;2022-11-12T05:13:05;3.90;99.90
11609;DHT22;5860;52.018;8.536;2022-11-12T05:15:31;3.90;99.90
11609;DHT22;5860;52.018;8.536;2022-11-12T05:17:58;3.90;99.90
11609;DHT22;5860;52.018;8.536;2022-11-12T05:20:25;3.90;99.90
11609;DHT22;5860;52.018;8.536;2022-11-12T05:22:52;3.90;99.90
11609;DHT22;5860;52.018;8.536;2022-11-12T05:25:35;4.00;99.90
11609;DHT22;5860;52.018;8.536;2022-11-12T05:28:02;4.00;99.90
11609;DHT22;5860;52.018;8.536;2022-11-12T05:30:28;3.90;99.90
11609;DHT22;5860;52.018;8.536;2022-11-12T05:32:55;4.00;99.90
11609;DHT22;5860;52.018;8.536;2022-11-12T05:35:22;4.00;99.90
11609;DHT22;5860;52.018;8.536;2022-11-12T05:37:49;4.00;99.90
11609;DHT22;5860;52.018;8.536;2022-11-12T05:40:15;4.10;99.90
11609;DHT22;5860;52.018;8.536;2022-11-12T05:42:44;4.10;99.90
11609;DHT22;5860;52.018;8.536;2022-11-12T05:45:11;4.10;99.90
11609;DHT22;5860;52.018;8.536;2022-11-12T05:47:37;4.10;99.90
11609;DHT22;5860;52.018;8.536;2022-11-12T05:50:04;4.10;99.90
11609;DHT22;5860;52.018;8.536;2022-11-12T05:52:32;4.10;99.90
11609;DHT22;5860;52.018;8.536;2022-11-12T05:54:58;4.00;99.90
11609;DHT22;5860;52.018;8.536;2022-11-12T05:57:26;4.00;99.90
11609;DHT22;5860;52.018;8.536;2022-11-12T05:59:53;4.00;99.90
11609;DHT22;5860;52.018;8.536;2022-11-12T06:02:20;4.00;99.90
11609;DHT22;5860;52.018;8.536;2022-11-12T06:04:47;4.00;99.90
11609;DHT22;5860;52.018;8.536;2022-11-12T06:07:14;4.00;99.90
11609;DHT22;5860;52.018;8.536;2022-11-12T06:09:40;3.90;99.90
11609;DHT22;5860;52.018;8.536;2022-11-12T06:12:07;3.90;99.90
11609;DHT22;5860;52.018;8.536;2022-11-12T06:14:34;3.90;99.90
11609;DHT22;5860;52.018;8.536;2022-11-12T06:17:01;4.00;99.90
11609;DHT22;5860;52.018;8.536;2022-11-12T06:19:28;3.90;99.90
11609;DHT22;5860;52.018;8.536;2022-11-12T06:21:54;3.90;99.90
11609;DHT22;5860;52.018;8.536;2022-11-12T06:24:21;4.00;99.90
11609;DHT22;5860;52.018;8.536;2022-11-12T06:26:48;4.00;99.90
11609;DHT22;5860;52.018;8.536;2022-11-12T06:29:15;3.90;99.90
11609;DHT22;5860;52.018;8.536;2022-11-12T06:31:42;3.90;99.90
11609;DHT22;5860;52.018;8.536;2022-11-12T06:34:08;3.90;99.90
11609;DHT22;5860;52.018;8.536;2022-11-12T06:36:38;3.80;99.90
11609;DHT22;5860;52.018;8.536;2022-11-12T06:39:04;3.80;99.90
11609;DHT22;5860;52.018;8.536;2022-11-12T06:41:31;3.90;99.90
11609;DHT22;5860;52.018;8.536;2022-11-12T06:43:58;4.00;99.90
11609;DHT22;5860;52.018;8.536;2022-11-12T06:46:25;4.00;99.90
11609;DHT22;5860;52.018;8.536;2022-11-12T06:48:52;4.10;99.90
11609;DHT22;5860;52.018;8.536;2022-11-12T06:51:20;4.00;99.90
11609;DHT22;5860;52.018;8.536;2022-11-12T06:53:47;4.10;99.90
11609;DHT22;5860;52.018;8.536;2022-11-12T06:56:14;4.10;99.90
11609;DHT22;5860;52.018;8.536;2022-11-12T06:58:41;4.20;99.90
11609;DHT22;5860;52.018;8.536;2022-11-12T07:01:13;4.10;99.90
11609;DHT22;5860;52.018;8.536;2022-11-12T07:03:41;4.10;99.90
11609;DHT22;5860;52.018;8.536;2022-11-12T07:06:13;4.10;99.90
11609;DHT22;5860;52.018;8.536;2022-11-12T07:08:40;4.10;99.90
11609;DHT22;5860;52.018;8.536;2022-11-12T07:11:07;4.10;99.90
11609;DHT22;5860;52.018;8.536;2022-11-12T07:13:35;4.10;99.90
11609;DHT22;5860;52.018;8.536;2022-11-12T07:16:05;4.10;99.90
11609;DHT22;5860;52.018;8.536;2022-11-12T07:18:33;4.20;99.90
11609;DHT22;5860;52.018;8.536;2022-11-12T07:21:06;4.20;99.90
11609;DHT22;5860;52.018;8.536;2022-11-12T07:23:34;4.20;99.90
11609;DHT22;5860;52.018;8.536;2022-11-12T07:26:14;4.20;99.90
11609;DHT22;5860;52.018;8.536;2022-11-12T07:28:41;4.30;99.90
11609;DHT22;5860;52.018;8.536;2022-11-12T07:31:10;4.30;99.90
11609;DHT22;5860;52.018;8.536;2022-11-12T07:33:37;4.30;99.90
11609;DHT22;5860;52.018;8.536;2022-11-12T07:36:05;4.40;99.90
11609;DHT22;5860;52.018;8.536;2022-11-12T07:38:34;4.40;99.90
11609;DHT22;5860;52.018;8.536;2022-11-12T07:41:06;4.40;99.90
11609;DHT22;5860;52.018;8.536;2022-11-12T07:43:35;4.40;99.90
11609;DHT22;5860;52.018;8.536;2022-11-12T07:46:04;4.40;99.90
11609;DHT22;5860;52.018;8.536;2022-11-12T07:48:37;4.50;99.90
11609;DHT22;5860;52.018;8.536;2022-11-12T07:51:12;4.50;99.90
11609;DHT22;5860;52.018;8.536;2022-11-12T07:53:40;4.60;99.90
11609;DHT22;5860;52.018;8.536;2022-11-12T07:56:13;4.60;99.90
11609;DHT22;5860;52.018;8.536;2022-11-12T07:58:40;4.70;99.90
11609;DHT22;5860;52.018;8.536;2022-11-12T08:03:53;4.80;99.90
11609;DHT22;5860;52.018;8.536;2022-11-12T08:06:20;4.80;99.90
11609;DHT22;5860;52.018;8.536;2022-11-12T08:08:50;4.90;99.90
11609;DHT22;5860;52.018;8.536;2022-11-12T08:11:16;4.90;99.90
11609;DHT22;5860;52.018;8.536;2022-11-12T08:13:43;4.90;99.90
11609;DHT22;5860;52.018;8.536;2022-11-12T08:16:10;5.00;99.90
11609;DHT22;5860;52.018;8.536;2022-11-12T08:18:37;5.10;99.90
11609;DHT22;5860;52.018;8.536;2022-11-12T08:21:05;5.20;99.90
11609;DHT22;5860;52.018;8.536;2022-11-12T08:23:33;5.40;99.90
11609;DHT22;5860;52.018;8.536;2022-11-12T08:26:02;5.40;99.90
11609;DHT22;5860;52.018;8.536;2022-11-12T08:28:32;5.50;99.90
11609;DHT22;5860;52.018;8.536;2022-11-12T08:33:34;5.40;99.90
11609;DHT22;5860;52.018;8.536;2022-11-12T08:36:06;5.40;99.90
11609;DHT22;5860;52.018;8.536;2022-11-12T08:38:33;5.30;99.90
11609;DHT22;5860;52.018;8.536;2022-11-12T08:41:05;5.30;99.90
11609;DHT22;5860;52.018;8.536;2022-11-12T08:43:32;5.40;99.90
11609;DHT22;5860;52.018;8.536;2022-11-12T08:46:00;5.50;99.90
11609;DHT22;5860;52.018;8.536;2022-11-12T08:48:28;5.50;99.90
11609;DHT22;5860;52.018;8.536;2022-11-12T08:50:56;5.70;99.90
11609;DHT22;5860;52.018;8.536;2022-11-12T08:53:23;5.70;99.90
11609;DHT22;5860;52.018;8.536;2022-11-12T08:55:54;5.80;99.90
11609;DHT22;5860;52.018;8.536;2022-11-12T08:58:23;5.90;99.90
11609;DHT22;5860;52.018;8.536;2022-11-12T09:00:51;5.90;99.90
11609;DHT22;5860;52.018;8.536;2022-11-12T09:03:23;6.00;99.90
11609;DHT22;5860;52.018;8.536;2022-11-12T09:05:51;6.00;99.90
11609;DHT22;5860;52.018;8.536;2022-11-12T09:08:21;5.90;99.90
11609;DHT22;5860;52.018;8.536;2022-11-12T09:10:49;5.90;99.90
11609;DHT22;5860;52.018;8.536;2022-11-12T09:13:16;5.90;99.90
11609;DHT22;5860;52.018;8.536;2022-11-12T09:15:44;6.00;99.90
11609;DHT22;5860;52.018;8.536;2022-11-12T09:18:16;6.00;99.90
11609;DHT22;5860;52.018;8.536;2022-11-12T09:20:43;6.00;99.90
11609;DHT22;5860;52.018;8.536;2022-11-12T09:23:12;6.00;99.90
11609;DHT22;5860;52.018;8.536;2022-11-12T09:25:39;6.00;99.90
11609;DHT22;5860;52.018;8.536;2022-11-12T09:28:11;6.10;99.90
11609;DHT22;5860;52.018;8.536;2022-11-12T09:30:42;6.10;99.90
11609;DHT22;5860;52.018;8.536;2022-11-12T09:33:17;6.10;99.90
11609;DHT22;5860;52.018;8.536;2022-11-12T09:35:45;6.20;99.90
11609;DHT22;5860;52.018;8.536;2022-11-12T09:38:13;6.20;99.90
11609;DHT22;5860;52.018;8.536;2022-11-12T09:43:22;6.40;99.90
11609;DHT22;5860;52.018;8.536;2022-11-12T09:45:51;6.50;99.90
11609;DHT22;5860;52.018;8.536;2022-11-12T09:48:43;6.60;99.90
11609;DHT22;5860;52.018;8.536;2022-11-12T09:51:23;6.70;99.90
11609;DHT22;5860;52.018;8.536;2022-11-12T09:53:56;6.90;99.90
11609;DHT22;5860;52.018;8.536;2022-11-12T09:56:25;7.10;99.90
11609;DHT22;5860;52.018;8.536;2022-11-12T09:58:53;7.30;99.90
11609;DHT22;5860;52.018;8.536;2022-11-12T10:11:09;7.70;99.90
11609;DHT22;5860;52.018;8.536;2022-11-12T10:24:07;8.30;99.90
11609;DHT22;5860;52.018;8.536;2022-11-12T10:26:37;8.60;99.90
11609;DHT22;5860;52.018;8.536;2022-11-12T10:31:38;8.70;99.90
11609;DHT22;5860;52.018;8.536;2022-11-12T10:34:16;8.50;99.90
11609;DHT22;5860;52.018;8.536;2022-11-12T10:37:05;8.60;99.90
11609;DHT22;5860;52.018;8.536;2022-11-12T10:39:43;8.60;99.90
11609;DHT22;5860;52.018;8.536;2022-11-12T10:42:16;8.80;99.90
11609;DHT22;5860;52.018;8.536;2022-11-12T10:44:43;8.90;99.90
11609;DHT22;5860;52.018;8.536;2022-11-12T10:52:35;9.10;99.90
11609;DHT22;5860;52.018;8.536;2022-11-12T10:55:28;9.10;99.90
11609;DHT22;5860;52.018;8.536;2022-11-12T11:03:22;9.20;99.90
11609;DHT22;5860;52.018;8.536;2022-11-12T11:11:21;9.00;99.90
11609;DHT22;5860;52.018;8.536;2022-11-12T11:13:51;9.10;99.90
11609;DHT22;5860;52.018;8.536;2022-11-12T11:16:26;9.20;99.90
11609;DHT22;5860;52.018;8.536;2022-11-12T11:18:56;9.30;99.90
11609;DHT22;5860;52.018;8.536;2022-11-12T11:24:55;9.50;99.90
11609;DHT22;5860;52.018;8.536;2022-11-12T11:27:36;9.70;99.90
11609;DHT22;5860;52.018;8.536;2022-11-12T11:30:12;9.60;99.90
11609;DHT22;5860;52.018;8.536;2022-11-12T11:36:20;10.00;99.90
11609;DHT22;5860;52.018;8.536;2022-11-12T11:39:05;10.00;99.90
11609;DHT22;5860;52.018;8.536;2022-11-12T11:53:04;10.20;99.90
11609;DHT22;5860;52.018;8.536;2022-11-12T11:58:40;10.30;99.90
11609;DHT22;5860;52.018;8.536;2022-11-12T12:01:27;10.40;99.90
11609;DHT22;5860;52.018;8.536;2022-11-12T12:06:29;10.30;99.90
11609;DHT22;5860;52.018;8.536;2022-11-12T12:11:46;10.60;99.90
11609;DHT22;5860;52.018;8.536;2022-11-12T12:17:43;10.70;99.90
11609;DHT22;5860;52.018;8.536;2022-11-12T12:20:24;10.80;99.90
11609;DHT22;5860;52.018;8.536;2022-11-12T12:22:58;11.00;99.90
11609;DHT22;5860;52.018;8.536;2022-11-12T12:25:31;11.00;99.90
11609;DHT22;5860;52.018;8.536;2022-11-12T12:28:26;11.00;99.90
11609;DHT22;5860;52.018;8.536;2022-11-12T12:30:51;11.00;99.90
11609;DHT22;5860;52.018;8.536;2022-11-12T12:33:31;11.00;99.90
11609;DHT22;5860;52.018;8.536;2022-11-12T12:36:11;11.10;99.90
11609;DHT22;5860;52.018;8.536;2022-11-12T12:41:36;11.10;99.90
11609;DHT22;5860;52.018;8.536;2022-11-12T12:44:07;11.10;99.90
11609;DHT22;5860;52.018;8.536;2022-11-12T12:46:56;11.20;99.90
11609;DHT22;5860;52.018;8.536;2022-11-12T12:49:33;11.40;99.90
11609;DHT22;5860;52.018;8.536;2022-11-12T12:52:02;11.40;99.90
11609;DHT22;5860;52.018;8.536;2022-11-12T13:00:23;11.50;99.90
11609;DHT22;5860;52.018;8.536;2022-11-12T13:02:51;11.40;99.90
11609;DHT22;5860;52.018;8.536;2022-11-12T13:05:33;11.40;99.90
11609;DHT22;5860;52.018;8.536;2022-11-12T13:08:08;11.40;99.90
11609;DHT22;5860;52.018;8.536;2022-11-12T13:18:11;11.60;99.90
11609;DHT22;5860;52.018;8.536;2022-11-12T13:23:49;11.50;99.90
11609;DHT22;5860;52.018;8.536;2022-11-12T13:32:32;11.50;99.90
11609;DHT22;5860;52.018;8.536;2022-11-12T13:37:44;11.50;99.90
11609;DHT22;5860;52.018;8.536;2022-11-12T13:45:58;11.50;99.90
11609;DHT22;5860;52.018;8.536;2022-11-12T13:48:42;11.60;99.90
11609;DHT22;5860;52.018;8.536;2022-11-12T13:51:52;11.50;99.90
11609;DHT22;5860;52.018;8.536;2022-11-12T13:54:26;11.50;99.90
11609;DHT22;5860;52.018;8.536;2022-11-12T13:56:54;11.50;99.90
11609;DHT22;5860;52.018;8.536;2022-11-12T13:59:23;11.50;99.90
11609;DHT22;5860;52.018;8.536;2022-11-12T14:01:50;11.40;99.90
11609;DHT22;5860;52.018;8.536;2022-11-12T14:04:20;11.40;99.90
11609;DHT22;5860;52.018;8.536;2022-11-12T14:18:41;11.30;99.90
11609;DHT22;5860;52.018;8.536;2022-11-12T14:21:16;11.20;99.90
11609;DHT22;5860;52.018;8.536;2022-11-12T14:23:46;11.20;99.90
11609;DHT22;5860;52.018;8.536;2022-11-12T14:26:41;11.20;99.90
11609;DHT22;5860;52.018;8.536;2022-11-12T14:29:18;11.20;99.90
11609;DHT22;5860;52.018;8.536;2022-11-12T14:31:45;11.20;99.90
11609;DHT22;5860;52.018;8.536;2022-11-12T14:34:30;11.10;99.90
11609;DHT22;5860;52.018;8.536;2022-11-12T14:36:58;11.10;99.90
11609;DHT22;5860;52.018;8.536;2022-11-12T14:39:27;11.10;99.90
11609;DHT22;5860;52.018;8.536;2022-11-12T14:41:57;11.10;99.90
11609;DHT22;5860;52.018;8.536;2022-11-12T14:44:33;11.00;99.90
11609;DHT22;5860;52.018;8.536;2022-11-12T14:47:01;11.00;99.90
11609;DHT22;5860;52.018;8.536;2022-11-12T14:49:42;11.00;99.90
11609;DHT22;5860;52.018;8.536;2022-11-12T14:52:21;11.00;99.90
11609;DHT22;5860;52.018;8.536;2022-11-12T14:54:53;10.90;99.90
11609;DHT22;5860;52.018;8.536;2022-11-12T14:57:27;10.90;99.90
11609;DHT22;5860;52.018;8.536;2022-11-12T14:59:55;10.90;99.90
11609;DHT22;5860;52.018;8.536;2022-11-12T15:02:28;10.80;99.90
11609;DHT22;5860;52.018;8.536;2022-11-12T15:05:19;10.80;99.90
11609;DHT22;5860;52.018;8.536;2022-11-12T15:08:04;10.70;99.90
11609;DHT22;5860;52.018;8.536;2022-11-12T15:10:36;10.70;99.90
11609;DHT22;5860;52.018;8.536;2022-11-12T15:13:09;10.70;99.90
11609;DHT22;5860;52.018;8.536;2022-11-12T15:15:38;10.60;99.90
11609;DHT22;5860;52.018;8.536;2022-11-12T15:18:17;10.60;99.90
11609;DHT22;5860;52.018;8.536;2022-11-12T15:20:45;10.50;99.90
11609;DHT22;5860;52.018;8.536;2022-11-12T15:23:16;10.50;99.90
11609;DHT22;5860;52.018;8.536;2022-11-12T15:25:44;10.50;99.90
11609;DHT22;5860;52.018;8.536;2022-11-12T15:28:19;10.40;99.90
11609;DHT22;5860;52.018;8.536;2022-11-12T15:31:04;10.40;99.90
11609;DHT22;5860;52.018;8.536;2022-11-12T15:33:31;10.30;99.90
11609;DHT22;5860;52.018;8.536;2022-11-12T15:36:00;10.20;99.90
11609;DHT22;5860;52.018;8.536;2022-11-12T15:38:31;10.10;99.90
11609;DHT22;5860;52.018;8.536;2022-11-12T15:41:02;10.10;99.90
11609;DHT22;5860;52.018;8.536;2022-11-12T15:43:34;10.10;99.90
11609;DHT22;5860;52.018;8.536;2022-11-12T15:46:02;10.10;99.90
11609;DHT22;5860;52.018;8.536;2022-11-12T15:48:29;10.00;99.90
11609;DHT22;5860;52.018;8.536;2022-11-12T15:50:59;10.00;99.90
11609;DHT22;5860;52.018;8.536;2022-11-12T15:53:26;9.90;99.90
11609;DHT22;5860;52.018;8.536;2022-11-12T15:55:54;9.90;99.90
11609;DHT22;5860;52.018;8.536;2022-11-12T15:58:34;9.70;99.90
11609;DHT22;5860;52.018;8.536;2022-11-12T16:01:03;9.70;99.90
11609;DHT22;5860;52.018;8.536;2022-11-12T16:03:31;9.60;99.90
11609;DHT22;5860;52.018;8.536;2022-11-12T16:05:58;9.60;99.90
11609;DHT22;5860;52.018;8.536;2022-11-12T16:08:33;9.50;99.90
11609;DHT22;5860;52.018;8.536;2022-11-12T16:11:00;9.40;99.90
11609;DHT22;5860;52.018;8.536;2022-11-12T16:13:30;9.30;99.90
11609;DHT22;5860;52.018;8.536;2022-11-12T16:16:01;9.20;99.90
11609;DHT22;5860;52.018;8.536;2022-11-12T16:18:29;9.10;99.90
11609;DHT22;5860;52.018;8.536;2022-11-12T16:20:57;9.00;99.90
11609;DHT22;5860;52.018;8.536;2022-11-12T16:23:24;9.00;99.90
11609;DHT22;5860;52.018;8.536;2022-11-12T16:25:51;8.80;99.90
11609;DHT22;5860;52.018;8.536;2022-11-12T16:28:18;8.80;99.90
11609;DHT22;5860;52.018;8.536;2022-11-12T16:30:45;8.70;99.90
11609;DHT22;5860;52.018;8.536;2022-11-12T16:33:13;8.70;99.90
11609;DHT22;5860;52.018;8.536;2022-11-12T16:35:40;8.60;99.90
11609;DHT22;5860;52.018;8.536;2022-11-12T16:38:15;8.50;99.90
11609;DHT22;5860;52.018;8.536;2022-11-12T16:40:43;8.50;99.90
11609;DHT22;5860;52.018;8.536;2022-11-12T16:43:10;8.40;99.90
11609;DHT22;5860;52.018;8.536;2022-11-12T16:45:39;8.40;99.90
11609;DHT22;5860;52.018;8.536;2022-11-12T16:48:18;8.40;99.90
11609;DHT22;5860;52.018;8.536;2022-11-12T16:50:46;8.40;99.90
11609;DHT22;5860;52.018;8.536;2022-11-12T16:53:13;8.30;99.90
11609;DHT22;5860;52.018;8.536;2022-11-12T16:55:40;8.30;99.90
11609;DHT22;5860;52.018;8.536;2022-11-12T16:58:12;8.30;99.90
11609;DHT22;5860;52.018;8.536;2022-11-12T17:00:41;8.30;99.90
11609;DHT22;5860;52.018;8.536;2022-11-12T17:03:11;8.30;99.90
11609;DHT22;5860;52.018;8.536;2022-11-12T17:05:38;8.20;99.90
11609;DHT22;5860;52.018;8.536;2022-11-12T17:08:05;8.20;99.90
11609;DHT22;5860;52.018;8.536;2022-11-12T17:10:32;8.30;99.90
11609;DHT22;5860;52.018;8.536;2022-11-12T17:12:59;8.30;99.90
11609;DHT22;5860;52.018;8.536;2022-11-12T17:15:26;8.20;99.90
11609;DHT22;5860;52.018;8.536;2022-11-12T17:17:53;8.30;99.90
11609;DHT22;5860;52.018;8.536;2022-11-12T17:20:21;8.20;99.90
11609;DHT22;5860;52.018;8.536;2022-11-12T17:22:50;8.10;99.90
11609;DHT22;5860;52.018;8.536;2022-11-12T17:25:17;8.00;99.90
11609;DHT22;5860;52.018;8.536;2022-11-12T17:27:44;8.10;99.90
11609;DHT22;5860;52.018;8.536;2022-11-12T17:30:11;8.10;99.90
11609;DHT22;5860;52.018;8.536;2022-11-12T17:32:38;8.00;99.90
11609;DHT22;5860;52.018;8.536;2022-11-12T17:35:05;8.00;99.90
11609;DHT22;5860;52.018;8.536;2022-11-12T17:37:32;8.00;99.90
11609;DHT22;5860;52.018;8.536;2022-11-12T17:39:59;7.90;99.90
11609;DHT22;5860;52.018;8.536;2022-11-12T17:42:26;7.80;99.90
11609;DHT22;5860;52.018;8.536;2022-11-12T17:44:53;7.80;99.90
11609;DHT22;5860;52.018;8.536;2022-11-12T17:47:20;7.80;99.90
11609;DHT22;5860;52.018;8.536;2022-11-12T17:49:47;7.70;99.90
11609;DHT22;5860;52.018;8.536;2022-11-12T17:52:13;7.70;99.90
11609;DHT22;5860;52.018;8.536;2022-11-12T17:54:40;7.70;99.90
11609;DHT22;5860;52.018;8.536;2022-11-12T17:57:07;7.60;99.90
11609;DHT22;5860;52.018;8.536;2022-11-12T17:59:34;7.70;99.90
11609;DHT22;5860;52.018;8.536;2022-11-12T18:02:01;7.70;99.90
11609;DHT22;5860;52.018;8.536;2022-11-12T18:04:28;7.70;99.90
11609;DHT22;5860;52.018;8.536;2022-11-12T18:06:57;7.60;99.90
11609;DHT22;5860;52.018;8.536;2022-11-12T18:09:24;7.60;99.90
11609;DHT22;5860;52.018;8.536;2022-11-12T18:11:52;7.60;99.90
11609;DHT22;5860;52.018;8.536;2022-11-12T18:14:22;7.70;99.90
11609;DHT22;5860;52.018;8.536;2022-11-12T18:16:50;7.60;99.90
11609;DHT22;5860;52.018;8.536;2022-11-12T18:19:17;7.60;99.90
11609;DHT22;5860;52.018;8.536;2022-11-12T18:21:44;7.60;99.90